OCN6AJ ENBR-EDDL
Flight info
| Callsign | OCN6AJ |
|---|---|
| Flight time | N/A |
| Altitude | 37000 |
| Route | TUXIL DCT ZOL DCT SUTEB/N0453F380 DCT PAM/N0450F370 P62 PISAP PISAP1A |
| Aircraft | A320/M-SDE3FGHIRWY/LB1 |
Departure
| Time | 2026-05-08 09:09 |
|---|---|
| Airport | Bergen Airport, Flesland (ENBR) |
Arrival
| Time | N/A |
|---|---|
| Airport | Düsseldorf Airport (EDDL) |
| Time | Latitude | Longitude | Altitude | Speed | Heading |
|---|---|---|---|---|---|
| 2026-05-08 08:39 | 60.28929 | 5.22556 | 173 ft | 0 kts | 107° |
| 2026-05-08 08:58 | 60.28930 | 5.22549 | 173 ft | 2 kts | 107° |
| 2026-05-08 08:58 | 60.28937 | 5.22505 | 171 ft | 3 kts | 107° |
| 2026-05-08 08:58 | 60.28940 | 5.22476 | 170 ft | 3 kts | 62° |
| 2026-05-08 08:59 | 60.28935 | 5.22434 | 168 ft | 3 kts | 81° |
| 2026-05-08 08:59 | 60.28934 | 5.22420 | 167 ft | 3 kts | 51° |
| 2026-05-08 08:59 | 60.28915 | 5.22406 | 167 ft | 0 kts | 343° |
| 2026-05-08 09:01 | 60.28939 | 5.22394 | 166 ft | 5 kts | 347° |
| 2026-05-08 09:01 | 60.28988 | 5.22376 | 166 ft | 8 kts | 353° |
| 2026-05-08 09:02 | 60.29043 | 5.22360 | 166 ft | 8 kts | 351° |
| 2026-05-08 09:02 | 60.29081 | 5.22347 | 167 ft | 7 kts | 350° |
| 2026-05-08 09:02 | 60.29136 | 5.22327 | 168 ft | 7 kts | 348° |
| 2026-05-08 09:02 | 60.29171 | 5.22312 | 168 ft | 9 kts | 348° |
| 2026-05-08 09:03 | 60.29241 | 5.22292 | 165 ft | 12 kts | 353° |
| 2026-05-08 09:03 | 60.29362 | 5.22253 | 162 ft | 10 kts | 350° |
| 2026-05-08 09:03 | 60.29411 | 5.22236 | 160 ft | 8 kts | 350° |
| 2026-05-08 09:03 | 60.29462 | 5.22219 | 158 ft | 10 kts | 351° |
| 2026-05-08 09:04 | 60.29513 | 5.22203 | 155 ft | 3 kts | 351° |
| 2026-05-08 09:04 | 60.29597 | 5.22177 | 150 ft | 23 kts | 352° |
| 2026-05-08 09:04 | 60.29715 | 5.22106 | 148 ft | 14 kts | 305° |
| 2026-05-08 09:04 | 60.29780 | 5.21994 | 148 ft | 11 kts | 349° |
| 2026-05-08 09:05 | 60.29839 | 5.21973 | 151 ft | 10 kts | 350° |
| 2026-05-08 09:05 | 60.29920 | 5.21945 | 154 ft | 9 kts | 350° |
| 2026-05-08 09:05 | 60.29981 | 5.21922 | 156 ft | 11 kts | 349° |
| 2026-05-08 09:05 | 60.30087 | 5.21890 | 162 ft | 27 kts | 353° |
| 2026-05-08 09:06 | 60.30285 | 5.21823 | 167 ft | 23 kts | 351° |
| 2026-05-08 09:06 | 60.30419 | 5.21785 | 173 ft | 18 kts | 358° |
| 2026-05-08 09:06 | 60.30503 | 5.21745 | 176 ft | 12 kts | 349° |
| 2026-05-08 09:06 | 60.30566 | 5.21724 | 179 ft | 7 kts | 351° |
| 2026-05-08 09:07 | 60.30652 | 5.21664 | 181 ft | 13 kts | 312° |
| 2026-05-08 09:07 | 60.30658 | 5.21511 | 183 ft | 10 kts | 259° |
| 2026-05-08 09:07 | 60.30645 | 5.21397 | 188 ft | 7 kts | 244° |
| 2026-05-08 09:07 | 60.30633 | 5.21386 | 195 ft | 1 kts | 186° |
| 2026-05-08 09:08 | 60.30632 | 5.21387 | 194 ft | 0 kts | 175° |
| 2026-05-08 09:08 | 60.30629 | 5.21388 | 192 ft | 0 kts | 175° |
| 2026-05-08 09:08 | 60.30604 | 5.21392 | 183 ft | 26 kts | 174° |
| 2026-05-08 09:09 | 60.29863 | 5.21640 | 157 ft | 120 kts | 171° |
| 2026-05-08 09:09 | 60.28904 | 5.21942 | 687 ft | 128 kts | 171° |
| 2026-05-08 09:09 | 60.28037 | 5.22279 | 1484 ft | 129 kts | 169° |
| 2026-05-08 09:09 | 60.27125 | 5.22629 | 2065 ft | 142 kts | 171° |
| 2026-05-08 09:10 | 60.26078 | 5.22975 | 2476 ft | 161 kts | 172° |
| 2026-05-08 09:10 | 60.24909 | 5.23309 | 2974 ft | 174 kts | 173° |
| 2026-05-08 09:10 | 60.23634 | 5.23700 | 3487 ft | 193 kts | 169° |
| 2026-05-08 09:10 | 60.22691 | 5.24052 | 3832 ft | 207 kts | 171° |
| 2026-05-08 09:11 | 60.21218 | 5.24547 | 4463 ft | 225 kts | 172° |
| 2026-05-08 09:11 | 60.19567 | 5.25131 | 5206 ft | 240 kts | 171° |
| 2026-05-08 09:11 | 60.17937 | 5.25788 | 5950 ft | 245 kts | 170° |
| 2026-05-08 09:11 | 60.16173 | 5.26587 | 6812 ft | 253 kts | 170° |
| 2026-05-08 09:12 | 60.14502 | 5.27330 | 7717 ft | 255 kts | 172° |
| 2026-05-08 09:12 | 60.12727 | 5.27958 | 8656 ft | 258 kts | 176° |
| 2026-05-08 09:12 | 60.10875 | 5.28314 | 9557 ft | 262 kts | 178° |
| 2026-05-08 09:12 | 60.09021 | 5.28709 | 10295 ft | 272 kts | 177° |
| 2026-05-08 09:13 | 60.07087 | 5.29144 | 10750 ft | 291 kts | 178° |
| 2026-05-08 09:13 | 60.04987 | 5.29603 | 11168 ft | 310 kts | 178° |
| 2026-05-08 09:13 | 60.02790 | 5.30116 | 11516 ft | 329 kts | 176° |
| 2026-05-08 09:13 | 60.00464 | 5.30742 | 12170 ft | 336 kts | 174° |
| 2026-05-08 09:14 | 59.98143 | 5.31400 | 12981 ft | 339 kts | 175° |
| 2026-05-08 09:14 | 59.95797 | 5.32062 | 13738 ft | 343 kts | 175° |
| 2026-05-08 09:14 | 59.93411 | 5.32723 | 14462 ft | 347 kts | 175° |
| 2026-05-08 09:14 | 59.90953 | 5.33395 | 15169 ft | 350 kts | 175° |
| 2026-05-08 09:15 | 59.88513 | 5.34056 | 15875 ft | 353 kts | 175° |
| 2026-05-08 09:15 | 59.86081 | 5.34705 | 16559 ft | 356 kts | 175° |
| 2026-05-08 09:15 | 59.83585 | 5.35366 | 17257 ft | 359 kts | 175° |
| 2026-05-08 09:15 | 59.81073 | 5.36026 | 17932 ft | 362 kts | 175° |
| 2026-05-08 09:16 | 59.78687 | 5.36617 | 18546 ft | 364 kts | 176° |
| 2026-05-08 09:16 | 59.76658 | 5.37019 | 18974 ft | 366 kts | 177° |
| 2026-05-08 09:16 | 59.73259 | 5.37562 | 19669 ft | 370 kts | 178° |
| 2026-05-08 09:16 | 59.71165 | 5.37862 | 20135 ft | 372 kts | 178° |
| 2026-05-08 09:17 | 59.68750 | 5.38206 | 20632 ft | 375 kts | 178° |
| 2026-05-08 09:17 | 59.66067 | 5.38607 | 21179 ft | 378 kts | 178° |
| 2026-05-08 09:17 | 59.63049 | 5.39125 | 21777 ft | 381 kts | 176° |
| 2026-05-08 09:17 | 59.60600 | 5.39682 | 22248 ft | 384 kts | 175° |
| 2026-05-08 09:18 | 59.58085 | 5.40335 | 22729 ft | 387 kts | 175° |
| 2026-05-08 09:18 | 59.55255 | 5.41118 | 23244 ft | 390 kts | 175° |
| 2026-05-08 09:18 | 59.52576 | 5.41863 | 23734 ft | 393 kts | 175° |
| 2026-05-08 09:18 | 59.49822 | 5.42608 | 24160 ft | 396 kts | 175° |
| 2026-05-08 09:19 | 59.47112 | 5.43316 | 24546 ft | 398 kts | 175° |
| 2026-05-08 09:19 | 59.44353 | 5.44015 | 24945 ft | 400 kts | 175° |
| 2026-05-08 09:19 | 59.41590 | 5.44700 | 25349 ft | 402 kts | 175° |
| 2026-05-08 09:19 | 59.38804 | 5.45433 | 25751 ft | 404 kts | 174° |
| 2026-05-08 09:20 | 59.36035 | 5.46333 | 26130 ft | 407 kts | 172° |
| 2026-05-08 09:20 | 59.33238 | 5.47366 | 26543 ft | 409 kts | 171° |
| 2026-05-08 09:20 | 59.30443 | 5.48457 | 26934 ft | 411 kts | 171° |
| 2026-05-08 09:20 | 59.27632 | 5.49559 | 27318 ft | 413 kts | 171° |
| 2026-05-08 09:21 | 59.24769 | 5.50655 | 27710 ft | 415 kts | 171° |
| 2026-05-08 09:21 | 59.21935 | 5.51711 | 28055 ft | 416 kts | 172° |
| 2026-05-08 09:22 | 59.04581 | 5.57930 | 30002 ft | 428 kts | 172° |
| 2026-05-08 09:23 | 59.01619 | 5.58990 | 30412 ft | 427 kts | 172° |
| 2026-05-08 09:23 | 58.98704 | 5.60032 | 30823 ft | 425 kts | 172° |
| 2026-05-08 09:23 | 58.95761 | 5.61082 | 31258 ft | 423 kts | 172° |
| 2026-05-08 09:23 | 58.92919 | 5.62093 | 31678 ft | 420 kts | 172° |
| 2026-05-08 09:24 | 58.90054 | 5.63111 | 32088 ft | 418 kts | 171° |
| 2026-05-08 09:24 | 58.87180 | 5.63859 | 32488 ft | 415 kts | 178° |
| 2026-05-08 09:24 | 58.84152 | 5.63809 | 32922 ft | 412 kts | 182° |
| 2026-05-08 09:24 | 58.81419 | 5.63629 | 33330 ft | 410 kts | 182° |
| 2026-05-08 09:25 | 58.78564 | 5.63441 | 33763 ft | 408 kts | 182° |
| 2026-05-08 09:25 | 58.75741 | 5.63263 | 34197 ft | 406 kts | 182° |
| 2026-05-08 09:25 | 58.72926 | 5.63088 | 34517 ft | 405 kts | 182° |
| 2026-05-08 09:25 | 58.70109 | 5.62919 | 34781 ft | 406 kts | 182° |
| 2026-05-08 09:26 | 58.67268 | 5.62748 | 35019 ft | 407 kts | 182° |
| 2026-05-08 09:26 | 58.64448 | 5.62573 | 35256 ft | 408 kts | 182° |
| 2026-05-08 09:26 | 58.61602 | 5.62396 | 35485 ft | 410 kts | 183° |
| 2026-05-08 09:26 | 58.58750 | 5.62215 | 35707 ft | 411 kts | 183° |
| 2026-05-08 09:27 | 58.55863 | 5.62029 | 35938 ft | 412 kts | 183° |
| 2026-05-08 09:27 | 58.52986 | 5.61844 | 36152 ft | 413 kts | 183° |
| 2026-05-08 09:27 | 58.50108 | 5.61659 | 36360 ft | 414 kts | 183° |
| 2026-05-08 09:27 | 58.47231 | 5.61484 | 36573 ft | 415 kts | 183° |
| 2026-05-08 09:28 | 58.44336 | 5.61310 | 36773 ft | 416 kts | 183° |
| 2026-05-08 09:28 | 58.41361 | 5.61128 | 36978 ft | 417 kts | 183° |
| 2026-05-08 09:28 | 58.38466 | 5.60953 | 37168 ft | 418 kts | 183° |
| 2026-05-08 09:28 | 58.35551 | 5.60776 | 37363 ft | 419 kts | 183° |
| 2026-05-08 09:29 | 58.32598 | 5.60589 | 37538 ft | 420 kts | 183° |
| 2026-05-08 09:29 | 58.29726 | 5.60404 | 37718 ft | 421 kts | 183° |
| 2026-05-08 09:29 | 58.26744 | 5.60215 | 37904 ft | 422 kts | 183° |
| 2026-05-08 09:29 | 58.23805 | 5.60034 | 38094 ft | 423 kts | 183° |
| 2026-05-08 09:30 | 58.20853 | 5.59856 | 38208 ft | 425 kts | 184° |
| 2026-05-08 09:30 | 58.14940 | 5.59502 | 38223 ft | 426 kts | 183° |
| 2026-05-08 09:31 | 58.09975 | 5.59214 | 38230 ft | 426 kts | 183° |
| 2026-05-08 09:31 | 58.04009 | 5.58850 | 38225 ft | 427 kts | 184° |
| 2026-05-08 09:32 | 57.98023 | 5.58481 | 38227 ft | 428 kts | 183° |
| 2026-05-08 09:32 | 57.92028 | 5.58134 | 38230 ft | 428 kts | 183° |
| 2026-05-08 09:33 | 57.86073 | 5.57777 | 38233 ft | 428 kts | 183° |
| 2026-05-08 09:33 | 57.80102 | 5.57415 | 38226 ft | 429 kts | 183° |
| 2026-05-08 09:34 | 57.74102 | 5.57052 | 38230 ft | 429 kts | 183° |
| 2026-05-08 09:34 | 57.68132 | 5.56704 | 38233 ft | 430 kts | 183° |
| 2026-05-08 09:35 | 57.62158 | 5.56355 | 38242 ft | 430 kts | 183° |
| 2026-05-08 09:35 | 57.56137 | 5.55996 | 38247 ft | 430 kts | 183° |
| 2026-05-08 09:36 | 57.50153 | 5.55637 | 38233 ft | 430 kts | 183° |
| 2026-05-08 09:36 | 57.44164 | 5.55281 | 38234 ft | 431 kts | 183° |
| 2026-05-08 09:37 | 57.38167 | 5.54941 | 38236 ft | 431 kts | 183° |
| 2026-05-08 09:37 | 57.32125 | 5.54585 | 38236 ft | 432 kts | 183° |
| 2026-05-08 09:38 | 57.26117 | 5.54232 | 38238 ft | 432 kts | 183° |
| 2026-05-08 09:38 | 57.20110 | 5.53886 | 38229 ft | 433 kts | 183° |
| 2026-05-08 09:39 | 57.14083 | 5.53544 | 38233 ft | 433 kts | 183° |
| 2026-05-08 09:39 | 57.08018 | 5.53193 | 38238 ft | 434 kts | 183° |
| 2026-05-08 09:40 | 57.01933 | 5.52856 | 38239 ft | 434 kts | 183° |
| 2026-05-08 09:40 | 56.95894 | 5.52510 | 38231 ft | 435 kts | 184° |
| 2026-05-08 09:41 | 56.89840 | 5.52151 | 38234 ft | 435 kts | 184° |
| 2026-05-08 09:41 | 56.83784 | 5.51796 | 38237 ft | 436 kts | 184° |
| 2026-05-08 09:42 | 56.77721 | 5.51458 | 38234 ft | 436 kts | 183° |
| 2026-05-08 09:42 | 56.71623 | 5.51132 | 38224 ft | 436 kts | 183° |
| 2026-05-08 09:43 | 56.65542 | 5.50797 | 38223 ft | 436 kts | 183° |
| 2026-05-08 09:43 | 56.59409 | 5.50453 | 38225 ft | 437 kts | 184° |
| 2026-05-08 09:44 | 56.53359 | 5.50101 | 38229 ft | 437 kts | 184° |
| 2026-05-08 09:44 | 56.47276 | 5.49755 | 38228 ft | 437 kts | 184° |
| 2026-05-08 09:45 | 56.41165 | 5.49409 | 38215 ft | 437 kts | 184° |
| 2026-05-08 09:45 | 56.35091 | 5.49084 | 38210 ft | 438 kts | 183° |
| 2026-05-08 09:46 | 56.28956 | 5.48758 | 38214 ft | 438 kts | 184° |
| 2026-05-08 09:46 | 56.22763 | 5.48417 | 38218 ft | 438 kts | 184° |
| 2026-05-08 09:47 | 56.17647 | 5.48132 | 38207 ft | 439 kts | 184° |
| 2026-05-08 09:47 | 56.11509 | 5.47802 | 38210 ft | 439 kts | 184° |
| 2026-05-08 09:48 | 56.05414 | 5.47479 | 38216 ft | 440 kts | 184° |
| 2026-05-08 09:48 | 55.99247 | 5.47135 | 38220 ft | 440 kts | 184° |
| 2026-05-08 09:49 | 55.93128 | 5.46793 | 38217 ft | 440 kts | 184° |
| 2026-05-08 09:49 | 55.86959 | 5.46459 | 38220 ft | 440 kts | 184° |
| 2026-05-08 09:50 | 55.80794 | 5.46134 | 38226 ft | 441 kts | 184° |
| 2026-05-08 09:50 | 55.74662 | 5.45810 | 38225 ft | 441 kts | 184° |
| 2026-05-08 09:51 | 55.68489 | 5.45481 | 38224 ft | 441 kts | 184° |
| 2026-05-08 09:51 | 55.62359 | 5.45152 | 38211 ft | 441 kts | 184° |
| 2026-05-08 09:52 | 55.56097 | 5.44824 | 38217 ft | 442 kts | 184° |
| 2026-05-08 09:52 | 55.49906 | 5.44498 | 38223 ft | 442 kts | 184° |
| 2026-05-08 09:53 | 55.43680 | 5.44170 | 38211 ft | 442 kts | 184° |
| 2026-05-08 09:53 | 55.37526 | 5.43849 | 38211 ft | 442 kts | 184° |
| 2026-05-08 09:54 | 55.31337 | 5.43522 | 38213 ft | 442 kts | 184° |
| 2026-05-08 09:54 | 55.25182 | 5.43198 | 38216 ft | 442 kts | 184° |
| 2026-05-08 09:55 | 55.19027 | 5.42870 | 38215 ft | 443 kts | 184° |
| 2026-05-08 09:55 | 55.12873 | 5.42554 | 38198 ft | 443 kts | 184° |
| 2026-05-08 09:56 | 55.06663 | 5.42240 | 38206 ft | 443 kts | 184° |
| 2026-05-08 09:56 | 55.00459 | 5.41920 | 38197 ft | 443 kts | 184° |
| 2026-05-08 09:57 | 54.91159 | 5.40895 | 38210 ft | 443 kts | 187° |
| 2026-05-08 09:57 | 54.85008 | 5.39958 | 38193 ft | 443 kts | 187° |
| 2026-05-08 09:58 | 54.78858 | 5.39104 | 38206 ft | 444 kts | 186° |
| 2026-05-08 09:58 | 54.73696 | 5.38447 | 38210 ft | 444 kts | 186° |
| 2026-05-08 09:59 | 54.67494 | 5.37674 | 38211 ft | 444 kts | 186° |
| 2026-05-08 09:59 | 54.61293 | 5.36890 | 38201 ft | 444 kts | 186° |
| 2026-05-08 10:00 | 54.55132 | 5.36090 | 38203 ft | 444 kts | 186° |
| 2026-05-08 10:00 | 54.48969 | 5.35311 | 38205 ft | 444 kts | 186° |
| 2026-05-08 10:01 | 54.42749 | 5.34522 | 38207 ft | 444 kts | 186° |
| 2026-05-08 10:01 | 54.36512 | 5.33730 | 38190 ft | 444 kts | 186° |
| 2026-05-08 10:02 | 54.30356 | 5.32948 | 38197 ft | 444 kts | 186° |
| 2026-05-08 10:02 | 54.24142 | 5.32173 | 38204 ft | 445 kts | 186° |
| 2026-05-08 10:03 | 54.17845 | 5.31380 | 38209 ft | 445 kts | 186° |
| 2026-05-08 10:03 | 54.11586 | 5.30594 | 38197 ft | 445 kts | 186° |
| 2026-05-08 10:04 | 54.05372 | 5.29811 | 38203 ft | 445 kts | 186° |
| 2026-05-08 10:04 | 53.99164 | 5.29036 | 38204 ft | 445 kts | 186° |
| 2026-05-08 10:05 | 53.92898 | 5.28265 | 38204 ft | 445 kts | 186° |
| 2026-05-08 10:05 | 53.86729 | 5.27497 | 38195 ft | 445 kts | 186° |
| 2026-05-08 10:06 | 53.80480 | 5.26728 | 38197 ft | 445 kts | 186° |
| 2026-05-08 10:06 | 53.74246 | 5.25966 | 38202 ft | 445 kts | 186° |
| 2026-05-08 10:07 | 53.68065 | 5.25201 | 38206 ft | 445 kts | 186° |
| 2026-05-08 10:07 | 53.61840 | 5.24437 | 38194 ft | 446 kts | 186° |
| 2026-05-08 10:08 | 53.56620 | 5.23807 | 38200 ft | 446 kts | 186° |
| 2026-05-08 10:08 | 53.50347 | 5.23046 | 38203 ft | 446 kts | 186° |
| 2026-05-08 10:09 | 53.44117 | 5.22294 | 38203 ft | 446 kts | 186° |
| 2026-05-08 10:09 | 53.37799 | 5.21536 | 38188 ft | 446 kts | 186° |
| 2026-05-08 10:10 | 53.31569 | 5.20782 | 38185 ft | 446 kts | 186° |
| 2026-05-08 10:10 | 53.25296 | 5.20012 | 38186 ft | 446 kts | 186° |
| 2026-05-08 10:11 | 53.19061 | 5.19255 | 38186 ft | 446 kts | 186° |
| 2026-05-08 10:11 | 53.12792 | 5.18515 | 38172 ft | 446 kts | 186° |
| 2026-05-08 10:12 | 53.06626 | 5.17798 | 38178 ft | 446 kts | 186° |
| 2026-05-08 10:12 | 53.00423 | 5.17059 | 38186 ft | 446 kts | 186° |
| 2026-05-08 10:13 | 52.94174 | 5.16309 | 38187 ft | 446 kts | 186° |
| 2026-05-08 10:13 | 52.88070 | 5.15582 | 38174 ft | 445 kts | 186° |
| 2026-05-08 10:14 | 52.81859 | 5.14857 | 38177 ft | 445 kts | 186° |
| 2026-05-08 10:14 | 52.75713 | 5.14132 | 38180 ft | 445 kts | 186° |
| 2026-05-08 10:15 | 52.70496 | 5.13526 | 38171 ft | 445 kts | 186° |
| 2026-05-08 10:15 | 52.64287 | 5.12805 | 38148 ft | 445 kts | 186° |
| 2026-05-08 10:16 | 52.58144 | 5.12083 | 38153 ft | 445 kts | 186° |